KLM58K ENGM-EHAM
Flight info
| Callsign | KLM58K |
|---|---|
| Flight time | 1h 31m |
| Altitude | 36000 |
| Route | VIPPA DCT KUGAL DCT EEL DCT BLUFA |
| Aircraft | E190/M-SDE3GILORVW/S |
Departure
| Time | 2026-05-07 17:17 |
|---|---|
| Airport | Oslo-Gardermoen International Airport (ENGM) |
Arrival
| Time | 2026-05-07 18:48 |
|---|---|
| Airport | Amsterdam Airport Schiphol (EHAM) |
| Time | Latitude | Longitude | Altitude | Speed | Heading |
|---|---|---|---|---|---|
| 2026-05-07 16:31 | 60.19554 | 11.09503 | 684 ft | 0 kts | 196° |
| 2026-05-07 17:05 | 60.19564 | 11.09509 | 684 ft | 2 kts | 196° |
| 2026-05-07 17:06 | 60.19578 | 11.09517 | 684 ft | 2 kts | 196° |
| 2026-05-07 17:06 | 60.19592 | 11.09525 | 684 ft | 2 kts | 196° |
| 2026-05-07 17:06 | 60.19606 | 11.09533 | 684 ft | 2 kts | 196° |
| 2026-05-07 17:06 | 60.19620 | 11.09542 | 685 ft | 2 kts | 196° |
| 2026-05-07 17:07 | 60.19635 | 11.09550 | 685 ft | 2 kts | 196° |
| 2026-05-07 17:07 | 60.19649 | 11.09558 | 684 ft | 2 kts | 196° |
| 2026-05-07 17:07 | 60.19659 | 11.09564 | 684 ft | 0 kts | 196° |
| 2026-05-07 17:11 | 60.19652 | 11.09533 | 684 ft | 5 kts | 283° |
| 2026-05-07 17:11 | 60.19677 | 11.09437 | 684 ft | 10 kts | 288° |
| 2026-05-07 17:11 | 60.19701 | 11.09272 | 684 ft | 14 kts | 286° |
| 2026-05-07 17:12 | 60.19732 | 11.09054 | 684 ft | 10 kts | 286° |
| 2026-05-07 17:12 | 60.19747 | 11.08953 | 685 ft | 6 kts | 285° |
| 2026-05-07 17:12 | 60.19759 | 11.08864 | 686 ft | 7 kts | 286° |
| 2026-05-07 17:12 | 60.19776 | 11.08748 | 686 ft | 9 kts | 286° |
| 2026-05-07 17:13 | 60.19827 | 11.08702 | 687 ft | 9 kts | 12° |
| 2026-05-07 17:13 | 60.19893 | 11.08739 | 687 ft | 10 kts | 16° |
| 2026-05-07 17:13 | 60.19973 | 11.08785 | 687 ft | 12 kts | 16° |
| 2026-05-07 17:13 | 60.20065 | 11.08840 | 687 ft | 14 kts | 15° |
| 2026-05-07 17:14 | 60.20172 | 11.08898 | 687 ft | 16 kts | 15° |
| 2026-05-07 17:14 | 60.20296 | 11.08971 | 684 ft | 20 kts | 16° |
| 2026-05-07 17:14 | 60.20423 | 11.09049 | 684 ft | 19 kts | 15° |
| 2026-05-07 17:14 | 60.20538 | 11.09112 | 684 ft | 12 kts | 15° |
| 2026-05-07 17:15 | 60.20616 | 11.09147 | 684 ft | 9 kts | 351° |
| 2026-05-07 17:15 | 60.20652 | 11.09029 | 684 ft | 11 kts | 284° |
| 2026-05-07 17:15 | 60.20676 | 11.08871 | 684 ft | 11 kts | 287° |
| 2026-05-07 17:15 | 60.20699 | 11.08710 | 684 ft | 9 kts | 285° |
| 2026-05-07 17:16 | 60.20701 | 11.08647 | 684 ft | 4 kts | 229° |
| 2026-05-07 17:16 | 60.20661 | 11.08620 | 684 ft | 7 kts | 196° |
| 2026-05-07 17:16 | 60.20552 | 11.08556 | 684 ft | 42 kts | 196° |
| 2026-05-07 17:16 | 60.20039 | 11.08260 | 687 ft | 109 kts | 195° |
| 2026-05-07 17:17 | 60.19115 | 11.07736 | 681 ft | 163 kts | 194° |
| 2026-05-07 17:17 | 60.18004 | 11.07045 | 1104 ft | 175 kts | 199° |
| 2026-05-07 17:17 | 60.16950 | 11.05633 | 1512 ft | 195 kts | 234° |
| 2026-05-07 17:17 | 60.16360 | 11.03188 | 2246 ft | 200 kts | 250° |
| 2026-05-07 17:18 | 60.15808 | 11.00533 | 2917 ft | 214 kts | 241° |
| 2026-05-07 17:18 | 60.14943 | 10.98040 | 3646 ft | 225 kts | 231° |
| 2026-05-07 17:18 | 60.13933 | 10.95544 | 4266 ft | 245 kts | 243° |
| 2026-05-07 17:18 | 60.13269 | 10.92245 | 4849 ft | 267 kts | 247° |
| 2026-05-07 17:19 | 60.12112 | 10.89376 | 5739 ft | 276 kts | 212° |
| 2026-05-07 17:19 | 60.10402 | 10.87809 | 6806 ft | 275 kts | 210° |
| 2026-05-07 17:19 | 60.08744 | 10.85962 | 7903 ft | 275 kts | 207° |
| 2026-05-07 17:19 | 60.07021 | 10.84373 | 8919 ft | 277 kts | 205° |
| 2026-05-07 17:20 | 60.05257 | 10.82921 | 9877 ft | 280 kts | 204° |
| 2026-05-07 17:20 | 60.03455 | 10.81522 | 10770 ft | 285 kts | 203° |
| 2026-05-07 17:20 | 60.01587 | 10.80114 | 11532 ft | 294 kts | 203° |
| 2026-05-07 17:20 | 59.99624 | 10.78656 | 12220 ft | 306 kts | 203° |
| 2026-05-07 17:21 | 59.97606 | 10.77169 | 12933 ft | 315 kts | 203° |
| 2026-05-07 17:21 | 59.95569 | 10.75676 | 13751 ft | 320 kts | 204° |
| 2026-05-07 17:21 | 59.93468 | 10.74139 | 14660 ft | 323 kts | 204° |
| 2026-05-07 17:21 | 59.91379 | 10.72612 | 15531 ft | 325 kts | 204° |
| 2026-05-07 17:22 | 59.89267 | 10.71072 | 16343 ft | 329 kts | 205° |
| 2026-05-07 17:22 | 59.87107 | 10.69497 | 17124 ft | 333 kts | 205° |
| 2026-05-07 17:22 | 59.84933 | 10.67917 | 17876 ft | 338 kts | 205° |
| 2026-05-07 17:22 | 59.82726 | 10.66313 | 18626 ft | 342 kts | 205° |
| 2026-05-07 17:23 | 59.80481 | 10.64685 | 19376 ft | 346 kts | 205° |
| 2026-05-07 17:23 | 59.78212 | 10.63042 | 20099 ft | 351 kts | 206° |
| 2026-05-07 17:23 | 59.75928 | 10.61390 | 20828 ft | 354 kts | 206° |
| 2026-05-07 17:23 | 59.73637 | 10.59736 | 21541 ft | 357 kts | 206° |
| 2026-05-07 17:24 | 59.71301 | 10.58050 | 22220 ft | 361 kts | 206° |
| 2026-05-07 17:24 | 59.68953 | 10.56361 | 22890 ft | 364 kts | 206° |
| 2026-05-07 17:24 | 59.66574 | 10.54650 | 23559 ft | 367 kts | 206° |
| 2026-05-07 17:24 | 59.64142 | 10.52904 | 24199 ft | 371 kts | 206° |
| 2026-05-07 17:25 | 59.61744 | 10.51185 | 24796 ft | 375 kts | 207° |
| 2026-05-07 17:25 | 59.59298 | 10.49436 | 25412 ft | 378 kts | 207° |
| 2026-05-07 17:25 | 59.56797 | 10.47648 | 25973 ft | 383 kts | 207° |
| 2026-05-07 17:25 | 59.54294 | 10.45862 | 26536 ft | 387 kts | 207° |
| 2026-05-07 17:26 | 59.51761 | 10.44059 | 27104 ft | 390 kts | 207° |
| 2026-05-07 17:26 | 59.49223 | 10.42254 | 27646 ft | 394 kts | 207° |
| 2026-05-07 17:26 | 59.46639 | 10.40419 | 28168 ft | 397 kts | 207° |
| 2026-05-07 17:26 | 59.44029 | 10.38570 | 28725 ft | 400 kts | 207° |
| 2026-05-07 17:27 | 59.41412 | 10.36718 | 29262 ft | 402 kts | 207° |
| 2026-05-07 17:27 | 59.38767 | 10.34849 | 29730 ft | 407 kts | 206° |
| 2026-05-07 17:27 | 59.36100 | 10.32967 | 30220 ft | 410 kts | 206° |
| 2026-05-07 17:27 | 59.33415 | 10.31077 | 30679 ft | 414 kts | 206° |
| 2026-05-07 17:28 | 59.30738 | 10.29195 | 31152 ft | 417 kts | 206° |
| 2026-05-07 17:28 | 59.27983 | 10.27263 | 31632 ft | 420 kts | 206° |
| 2026-05-07 17:28 | 59.25248 | 10.25346 | 32084 ft | 423 kts | 206° |
| 2026-05-07 17:28 | 59.22511 | 10.23433 | 32584 ft | 424 kts | 206° |
| 2026-05-07 17:29 | 59.19725 | 10.21488 | 33132 ft | 424 kts | 206° |
| 2026-05-07 17:29 | 59.16969 | 10.19567 | 33683 ft | 424 kts | 206° |
| 2026-05-07 17:29 | 59.14188 | 10.17634 | 34253 ft | 421 kts | 206° |
| 2026-05-07 17:29 | 59.11491 | 10.15762 | 34767 ft | 412 kts | 206° |
| 2026-05-07 17:30 | 59.08825 | 10.13911 | 35143 ft | 414 kts | 206° |
| 2026-05-07 17:30 | 59.06121 | 10.12037 | 35349 ft | 419 kts | 206° |
| 2026-05-07 17:30 | 59.03353 | 10.10126 | 35570 ft | 418 kts | 205° |
| 2026-05-07 17:30 | 59.00649 | 10.08261 | 35782 ft | 417 kts | 205° |
| 2026-05-07 17:31 | 58.97914 | 10.06377 | 35999 ft | 416 kts | 205° |
| 2026-05-07 17:31 | 58.95182 | 10.04497 | 36075 ft | 422 kts | 205° |
| 2026-05-07 17:31 | 58.89578 | 10.00654 | 36093 ft | 434 kts | 205° |
| 2026-05-07 17:32 | 58.83936 | 9.96800 | 36093 ft | 432 kts | 205° |
| 2026-05-07 17:32 | 58.78258 | 9.92932 | 36094 ft | 432 kts | 204° |
| 2026-05-07 17:33 | 58.72637 | 9.89118 | 36095 ft | 433 kts | 204° |
| 2026-05-07 17:33 | 58.66943 | 9.85266 | 36099 ft | 434 kts | 204° |
| 2026-05-07 17:34 | 58.61301 | 9.81463 | 36098 ft | 434 kts | 204° |
| 2026-05-07 17:34 | 58.55620 | 9.77647 | 36095 ft | 433 kts | 204° |
| 2026-05-07 17:35 | 58.49955 | 9.73854 | 36098 ft | 435 kts | 204° |
| 2026-05-07 17:35 | 58.44295 | 9.70078 | 36096 ft | 435 kts | 204° |
| 2026-05-07 17:36 | 58.38609 | 9.66298 | 36101 ft | 435 kts | 204° |
| 2026-05-07 17:36 | 58.32930 | 9.62535 | 36098 ft | 435 kts | 204° |
| 2026-05-07 17:37 | 58.27245 | 9.58780 | 36101 ft | 436 kts | 203° |
| 2026-05-07 17:37 | 58.21532 | 9.55021 | 36101 ft | 436 kts | 203° |
| 2026-05-07 17:38 | 58.15809 | 9.51268 | 36099 ft | 436 kts | 203° |
| 2026-05-07 17:38 | 58.10120 | 9.47549 | 36101 ft | 436 kts | 203° |
| 2026-05-07 17:39 | 58.04389 | 9.43816 | 36101 ft | 437 kts | 203° |
| 2026-05-07 17:39 | 57.98671 | 9.40104 | 36105 ft | 436 kts | 203° |
| 2026-05-07 17:40 | 57.92994 | 9.36430 | 36107 ft | 436 kts | 202° |
| 2026-05-07 17:40 | 57.87250 | 9.32726 | 36108 ft | 437 kts | 202° |
| 2026-05-07 17:41 | 57.81531 | 9.29051 | 36108 ft | 437 kts | 201° |
| 2026-05-07 17:41 | 57.75804 | 9.25382 | 36104 ft | 438 kts | 201° |
| 2026-05-07 17:42 | 57.70049 | 9.21709 | 36106 ft | 438 kts | 201° |
| 2026-05-07 17:42 | 57.64312 | 9.18059 | 36106 ft | 438 kts | 201° |
| 2026-05-07 17:43 | 57.58581 | 9.14425 | 36103 ft | 438 kts | 201° |
| 2026-05-07 17:43 | 57.52819 | 9.10783 | 36101 ft | 439 kts | 201° |
| 2026-05-07 17:44 | 57.47055 | 9.07152 | 36101 ft | 439 kts | 201° |
| 2026-05-07 17:44 | 57.41285 | 9.03530 | 36099 ft | 440 kts | 201° |
| 2026-05-07 17:45 | 57.35506 | 8.99913 | 36099 ft | 440 kts | 201° |
| 2026-05-07 17:45 | 57.29742 | 8.96320 | 36099 ft | 439 kts | 201° |
| 2026-05-07 17:46 | 57.23983 | 8.92739 | 36097 ft | 439 kts | 200° |
| 2026-05-07 17:46 | 57.18218 | 8.89168 | 36097 ft | 439 kts | 201° |
| 2026-05-07 17:47 | 57.12430 | 8.85594 | 36099 ft | 439 kts | 200° |
| 2026-05-07 17:47 | 57.06692 | 8.82062 | 36096 ft | 440 kts | 200° |
| 2026-05-07 17:48 | 57.00903 | 8.78511 | 36096 ft | 439 kts | 200° |
| 2026-05-07 17:48 | 56.95126 | 8.74979 | 36103 ft | 440 kts | 200° |
| 2026-05-07 17:49 | 56.89343 | 8.71455 | 36107 ft | 440 kts | 200° |
| 2026-05-07 17:49 | 56.83537 | 8.67928 | 36107 ft | 441 kts | 200° |
| 2026-05-07 17:50 | 56.77742 | 8.64420 | 36107 ft | 441 kts | 200° |
| 2026-05-07 17:50 | 56.71960 | 8.60930 | 36106 ft | 441 kts | 200° |
| 2026-05-07 17:51 | 56.66150 | 8.57435 | 36107 ft | 441 kts | 200° |
| 2026-05-07 17:51 | 56.60366 | 8.53967 | 36105 ft | 442 kts | 200° |
| 2026-05-07 17:52 | 56.54528 | 8.50478 | 36106 ft | 442 kts | 200° |
| 2026-05-07 17:52 | 56.48710 | 8.47012 | 36105 ft | 442 kts | 200° |
| 2026-05-07 17:53 | 56.42914 | 8.43570 | 36103 ft | 442 kts | 199° |
| 2026-05-07 17:53 | 56.37088 | 8.40122 | 36103 ft | 442 kts | 199° |
| 2026-05-07 17:54 | 56.31265 | 8.36687 | 36107 ft | 442 kts | 199° |
| 2026-05-07 17:54 | 56.25434 | 8.33258 | 36104 ft | 442 kts | 198° |
| 2026-05-07 17:55 | 56.19597 | 8.29836 | 36106 ft | 442 kts | 198° |
| 2026-05-07 17:55 | 56.13789 | 8.26442 | 36109 ft | 443 kts | 198° |
| 2026-05-07 17:56 | 56.07942 | 8.23037 | 36110 ft | 443 kts | 198° |
| 2026-05-07 17:56 | 56.02102 | 8.19646 | 36107 ft | 442 kts | 198° |
| 2026-05-07 17:57 | 55.97230 | 8.16826 | 36101 ft | 442 kts | 198° |
| 2026-05-07 17:57 | 55.90454 | 8.12916 | 36109 ft | 442 kts | 198° |
| 2026-05-07 17:58 | 55.84588 | 8.09542 | 36106 ft | 442 kts | 198° |
| 2026-05-07 17:58 | 55.78763 | 8.06202 | 36108 ft | 444 kts | 198° |
| 2026-05-07 17:59 | 55.72924 | 8.02865 | 36107 ft | 444 kts | 198° |
| 2026-05-07 17:59 | 55.67054 | 7.99521 | 36112 ft | 445 kts | 198° |
| 2026-05-07 18:00 | 55.61205 | 7.96200 | 36108 ft | 443 kts | 198° |
| 2026-05-07 18:00 | 55.55345 | 7.92883 | 36111 ft | 443 kts | 198° |
| 2026-05-07 18:01 | 55.49495 | 7.89581 | 36109 ft | 443 kts | 197° |
| 2026-05-07 18:01 | 55.43665 | 7.86301 | 36111 ft | 443 kts | 197° |
| 2026-05-07 18:02 | 55.34873 | 7.81374 | 36114 ft | 443 kts | 197° |
| 2026-05-07 18:03 | 55.29048 | 7.78122 | 36118 ft | 442 kts | 197° |
| 2026-05-07 18:03 | 55.23170 | 7.74851 | 36120 ft | 442 kts | 197° |
| 2026-05-07 18:04 | 55.17329 | 7.71610 | 36120 ft | 443 kts | 197° |
| 2026-05-07 18:04 | 55.11500 | 7.68387 | 36118 ft | 442 kts | 197° |
| 2026-05-07 18:05 | 55.05638 | 7.65155 | 36116 ft | 443 kts | 197° |
| 2026-05-07 18:05 | 54.99799 | 7.61945 | 36119 ft | 443 kts | 197° |
| 2026-05-07 18:06 | 54.93963 | 7.58774 | 36114 ft | 443 kts | 197° |
| 2026-05-07 18:06 | 54.88068 | 7.55581 | 36113 ft | 443 kts | 197° |
| 2026-05-07 18:07 | 54.82226 | 7.52426 | 36114 ft | 443 kts | 197° |
| 2026-05-07 18:07 | 54.76335 | 7.49254 | 36098 ft | 444 kts | 197° |
| 2026-05-07 18:08 | 54.70495 | 7.46119 | 36107 ft | 444 kts | 197° |
| 2026-05-07 18:08 | 54.64614 | 7.42972 | 36101 ft | 445 kts | 197° |
| 2026-05-07 18:09 | 54.58705 | 7.39818 | 36107 ft | 444 kts | 197° |
| 2026-05-07 18:09 | 54.52825 | 7.36691 | 36107 ft | 444 kts | 196° |
| 2026-05-07 18:10 | 54.46942 | 7.33571 | 36104 ft | 444 kts | 195° |
| 2026-05-07 18:10 | 54.41079 | 7.30470 | 36105 ft | 444 kts | 195° |
| 2026-05-07 18:11 | 54.35169 | 7.27355 | 36103 ft | 445 kts | 195° |
| 2026-05-07 18:11 | 54.29253 | 7.24246 | 36101 ft | 445 kts | 195° |
| 2026-05-07 18:12 | 54.23358 | 7.21157 | 36101 ft | 445 kts | 195° |
| 2026-05-07 18:12 | 54.17480 | 7.18086 | 36106 ft | 445 kts | 195° |
| 2026-05-07 18:13 | 54.11581 | 7.15013 | 36103 ft | 445 kts | 195° |
| 2026-05-07 18:13 | 54.05689 | 7.11953 | 36099 ft | 437 kts | 195° |
| 2026-05-07 18:13 | 54.02851 | 7.10327 | 35892 ft | 427 kts | 201° |
| 2026-05-07 18:14 | 54.00248 | 7.08040 | 35399 ft | 430 kts | 208° |
| 2026-05-07 18:14 | 53.97584 | 7.05718 | 34851 ft | 433 kts | 201° |
| 2026-05-07 18:14 | 53.94764 | 7.03702 | 34417 ft | 446 kts | 199° |
| 2026-05-07 18:14 | 53.91895 | 7.01781 | 33921 ft | 447 kts | 199° |
| 2026-05-07 18:15 | 53.89029 | 6.99904 | 33492 ft | 444 kts | 199° |
| 2026-05-07 18:15 | 53.86159 | 6.98039 | 33135 ft | 443 kts | 199° |
| 2026-05-07 18:15 | 53.83298 | 6.96187 | 32776 ft | 442 kts | 199° |
| 2026-05-07 18:15 | 53.80430 | 6.94334 | 32419 ft | 443 kts | 199° |
| 2026-05-07 18:16 | 53.77548 | 6.92473 | 32061 ft | 442 kts | 199° |
| 2026-05-07 18:16 | 53.74704 | 6.90642 | 31711 ft | 442 kts | 199° |
| 2026-05-07 18:16 | 53.71892 | 6.88561 | 31355 ft | 444 kts | 207° |
| 2026-05-07 18:16 | 53.69310 | 6.85694 | 31014 ft | 445 kts | 217° |
| 2026-05-07 18:17 | 53.67093 | 6.82190 | 30672 ft | 442 kts | 226° |
| 2026-05-07 18:17 | 53.64867 | 6.78686 | 30302 ft | 436 kts | 217° |
| 2026-05-07 18:17 | 53.62400 | 6.75755 | 29942 ft | 430 kts | 213° |
| 2026-05-07 18:17 | 53.59945 | 6.73003 | 29585 ft | 428 kts | 212° |
| 2026-05-07 18:18 | 53.57461 | 6.70259 | 29228 ft | 424 kts | 212° |
| 2026-05-07 18:18 | 53.55008 | 6.67563 | 28869 ft | 421 kts | 212° |
| 2026-05-07 18:18 | 53.52559 | 6.64878 | 28514 ft | 420 kts | 212° |
| 2026-05-07 18:18 | 53.50147 | 6.62238 | 28161 ft | 417 kts | 213° |
| 2026-05-07 18:19 | 53.47712 | 6.59577 | 27788 ft | 415 kts | 213° |
| 2026-05-07 18:19 | 53.45342 | 6.56991 | 27335 ft | 411 kts | 213° |
| 2026-05-07 18:19 | 53.43015 | 6.54454 | 26877 ft | 409 kts | 213° |
| 2026-05-07 18:19 | 53.40674 | 6.51907 | 26428 ft | 405 kts | 213° |
| 2026-05-07 18:20 | 53.38304 | 6.49331 | 25970 ft | 401 kts | 214° |
| 2026-05-07 18:20 | 53.35973 | 6.46800 | 25520 ft | 398 kts | 214° |
| 2026-05-07 18:20 | 53.33679 | 6.44313 | 25078 ft | 395 kts | 214° |
| 2026-05-07 18:20 | 53.31385 | 6.41830 | 24635 ft | 394 kts | 214° |
| 2026-05-07 18:21 | 53.29097 | 6.39355 | 24189 ft | 392 kts | 214° |
| 2026-05-07 18:21 | 53.26902 | 6.36985 | 23755 ft | 389 kts | 214° |
| 2026-05-07 18:21 | 53.24642 | 6.34548 | 23307 ft | 386 kts | 213° |
| 2026-05-07 18:21 | 53.22412 | 6.32145 | 22871 ft | 384 kts | 213° |
| 2026-05-07 18:22 | 53.20165 | 6.29728 | 22435 ft | 381 kts | 213° |
| 2026-05-07 18:22 | 53.18691 | 6.28144 | 22149 ft | 379 kts | 213° |
| 2026-05-07 18:22 | 53.15776 | 6.25016 | 21584 ft | 376 kts | 213° |
| 2026-05-07 18:22 | 53.13596 | 6.22678 | 21160 ft | 374 kts | 213° |
| 2026-05-07 18:23 | 53.11432 | 6.20362 | 20741 ft | 372 kts | 213° |
| 2026-05-07 18:23 | 53.09285 | 6.18067 | 20320 ft | 370 kts | 213° |
| 2026-05-07 18:23 | 53.07118 | 6.15752 | 19906 ft | 368 kts | 213° |
| 2026-05-07 18:23 | 53.04986 | 6.13478 | 19492 ft | 365 kts | 213° |
| 2026-05-07 18:24 | 53.02861 | 6.11214 | 19078 ft | 364 kts | 213° |
| 2026-05-07 18:24 | 53.00737 | 6.08953 | 18668 ft | 362 kts | 213° |
| 2026-05-07 18:24 | 52.98642 | 6.06727 | 18268 ft | 359 kts | 213° |
| 2026-05-07 18:24 | 52.96566 | 6.04523 | 17870 ft | 357 kts | 213° |
| 2026-05-07 18:25 | 52.94481 | 6.02312 | 17463 ft | 355 kts | 213° |
| 2026-05-07 18:25 | 52.92401 | 6.00110 | 17059 ft | 353 kts | 213° |
| 2026-05-07 18:25 | 52.90349 | 5.97939 | 16668 ft | 351 kts | 213° |
| 2026-05-07 18:25 | 52.88321 | 5.95796 | 16277 ft | 350 kts | 213° |
| 2026-05-07 18:26 | 52.86257 | 5.93617 | 15888 ft | 348 kts | 213° |
| 2026-05-07 18:26 | 52.84249 | 5.91500 | 15507 ft | 346 kts | 213° |
| 2026-05-07 18:26 | 52.82255 | 5.89400 | 15127 ft | 343 kts | 213° |
| 2026-05-07 18:26 | 52.80219 | 5.87257 | 14754 ft | 342 kts | 213° |
| 2026-05-07 18:27 | 52.78249 | 5.85188 | 14372 ft | 340 kts | 213° |
| 2026-05-07 18:27 | 52.76321 | 5.83164 | 14009 ft | 337 kts | 213° |
| 2026-05-07 18:27 | 52.74540 | 5.81296 | 13666 ft | 336 kts | 213° |
| 2026-05-07 18:27 | 52.72348 | 5.79001 | 13252 ft | 334 kts | 213° |
| 2026-05-07 18:28 | 52.70360 | 5.76921 | 12886 ft | 333 kts | 213° |
| 2026-05-07 18:28 | 52.68466 | 5.74941 | 12523 ft | 331 kts | 213° |
| 2026-05-07 18:28 | 52.66531 | 5.72921 | 12143 ft | 330 kts | 213° |
| 2026-05-07 18:28 | 52.64688 | 5.70998 | 11758 ft | 320 kts | 213° |
| 2026-05-07 18:29 | 52.63121 | 5.69365 | 11439 ft | 311 kts | 213° |
| 2026-05-07 18:29 | 52.59698 | 5.65804 | 10742 ft | 293 kts | 213° |
| 2026-05-07 18:29 | 52.57996 | 5.64035 | 10403 ft | 286 kts | 213° |
| 2026-05-07 18:30 | 52.56320 | 5.62294 | 10118 ft | 283 kts | 213° |
| 2026-05-07 18:30 | 52.54655 | 5.60567 | 9878 ft | 284 kts | 213° |
| 2026-05-07 18:30 | 52.52997 | 5.58849 | 9645 ft | 285 kts | 213° |
| 2026-05-07 18:30 | 52.51363 | 5.57025 | 9357 ft | 284 kts | 226° |
| 2026-05-07 18:31 | 52.50239 | 5.54461 | 9155 ft | 283 kts | 239° |
| 2026-05-07 18:31 | 52.49221 | 5.51709 | 8900 ft | 283 kts | 239° |
| 2026-05-07 18:31 | 52.48208 | 5.48961 | 8642 ft | 282 kts | 239° |
| 2026-05-07 18:31 | 52.47202 | 5.46233 | 8385 ft | 282 kts | 239° |
| 2026-05-07 18:32 | 52.46198 | 5.43508 | 8127 ft | 281 kts | 239° |
| 2026-05-07 18:32 | 52.45195 | 5.40787 | 7933 ft | 279 kts | 239° |
| 2026-05-07 18:32 | 52.44258 | 5.38251 | 7809 ft | 279 kts | 239° |
| 2026-05-07 18:32 | 52.43211 | 5.35418 | 7671 ft | 278 kts | 239° |
| 2026-05-07 18:33 | 52.42202 | 5.32691 | 7534 ft | 278 kts | 238° |
| 2026-05-07 18:33 | 52.41203 | 5.29991 | 7399 ft | 278 kts | 238° |
| 2026-05-07 18:33 | 52.40200 | 5.27287 | 7283 ft | 278 kts | 238° |
| 2026-05-07 18:33 | 52.39205 | 5.24603 | 7185 ft | 277 kts | 238° |
| 2026-05-07 18:34 | 52.38207 | 5.21917 | 7051 ft | 277 kts | 238° |
| 2026-05-07 18:34 | 52.37215 | 5.19248 | 6866 ft | 277 kts | 238° |
| 2026-05-07 18:34 | 52.36230 | 5.16602 | 6676 ft | 275 kts | 238° |
| 2026-05-07 18:34 | 52.35239 | 5.13942 | 6488 ft | 274 kts | 238° |
| 2026-05-07 18:35 | 52.34250 | 5.11294 | 6296 ft | 274 kts | 237° |
| 2026-05-07 18:35 | 52.33540 | 5.08413 | 6115 ft | 275 kts | 263° |
| 2026-05-07 18:35 | 52.33468 | 5.05308 | 5956 ft | 275 kts | 269° |
| 2026-05-07 18:35 | 52.33440 | 5.02193 | 5770 ft | 275 kts | 269° |
| 2026-05-07 18:36 | 52.33413 | 4.99172 | 5583 ft | 273 kts | 267° |
| 2026-05-07 18:36 | 52.32944 | 4.96479 | 5383 ft | 260 kts | 235° |
| 2026-05-07 18:36 | 52.31763 | 4.94362 | 5245 ft | 245 kts | 223° |
| 2026-05-07 18:36 | 52.30578 | 4.92506 | 5089 ft | 237 kts | 223° |
| 2026-05-07 18:37 | 52.29378 | 4.90642 | 4947 ft | 236 kts | 223° |
| 2026-05-07 18:37 | 52.28199 | 4.88809 | 4819 ft | 237 kts | 223° |
| 2026-05-07 18:37 | 52.26997 | 4.86940 | 4690 ft | 237 kts | 223° |
| 2026-05-07 18:37 | 52.25820 | 4.85114 | 4560 ft | 238 kts | 223° |
| 2026-05-07 18:38 | 52.24621 | 4.83254 | 4430 ft | 238 kts | 223° |
| 2026-05-07 18:38 | 52.23425 | 4.81402 | 4295 ft | 237 kts | 223° |
| 2026-05-07 18:38 | 52.22242 | 4.79574 | 4163 ft | 237 kts | 223° |
| 2026-05-07 18:38 | 52.21109 | 4.77686 | 4082 ft | 237 kts | 234° |
| 2026-05-07 18:39 | 52.20214 | 4.75433 | 4084 ft | 238 kts | 238° |
| 2026-05-07 18:39 | 52.19339 | 4.73143 | 4078 ft | 238 kts | 238° |
| 2026-05-07 18:39 | 52.18477 | 4.70873 | 4079 ft | 238 kts | 238° |
| 2026-05-07 18:39 | 52.17607 | 4.68584 | 4002 ft | 239 kts | 238° |
| 2026-05-07 18:40 | 52.16765 | 4.66374 | 3870 ft | 239 kts | 238° |
| 2026-05-07 18:40 | 52.15963 | 4.64263 | 3726 ft | 237 kts | 238° |
| 2026-05-07 18:40 | 52.15041 | 4.61840 | 3560 ft | 236 kts | 238° |
| 2026-05-07 18:40 | 52.14186 | 4.59601 | 3390 ft | 237 kts | 238° |
| 2026-05-07 18:41 | 52.13308 | 4.57310 | 3260 ft | 237 kts | 238° |
| 2026-05-07 18:41 | 52.12444 | 4.55065 | 3135 ft | 234 kts | 238° |
| 2026-05-07 18:41 | 52.11813 | 4.52692 | 3014 ft | 221 kts | 270° |
| 2026-05-07 18:41 | 52.12224 | 4.50515 | 3026 ft | 198 kts | 315° |
| 2026-05-07 18:42 | 52.13316 | 4.49272 | 3014 ft | 187 kts | 348° |
| 2026-05-07 18:42 | 52.14483 | 4.49283 | 3055 ft | 183 kts | 13° |
| 2026-05-07 18:42 | 52.15553 | 4.49597 | 3178 ft | 185 kts | 13° |
| 2026-05-07 18:43 | 52.17822 | 4.50258 | 3403 ft | 173 kts | 13° |
| 2026-05-07 18:43 | 52.19202 | 4.50802 | 3023 ft | 173 kts | 29° |
| 2026-05-07 18:43 | 52.20612 | 4.52203 | 2528 ft | 180 kts | 41° |
| 2026-05-07 18:43 | 52.21451 | 4.53700 | 2209 ft | 182 kts | 66° |
| 2026-05-07 18:44 | 52.21883 | 4.55238 | 2043 ft | 176 kts | 64° |
| 2026-05-07 18:44 | 52.22446 | 4.56914 | 2007 ft | 170 kts | 61° |
| 2026-05-07 18:44 | 52.23655 | 4.60148 | 1919 ft | 177 kts | 59° |
| 2026-05-07 18:45 | 52.24297 | 4.61814 | 1708 ft | 176 kts | 58° |
| 2026-05-07 18:45 | 52.24945 | 4.63487 | 1494 ft | 172 kts | 58° |
| 2026-05-07 18:45 | 52.25549 | 4.65043 | 1296 ft | 157 kts | 59° |
| 2026-05-07 18:45 | 52.26100 | 4.66469 | 1056 ft | 142 kts | 59° |
| 2026-05-07 18:46 | 52.26597 | 4.67755 | 855 ft | 127 kts | 59° |
| 2026-05-07 18:46 | 52.27050 | 4.68928 | 693 ft | 121 kts | 58° |
| 2026-05-07 18:46 | 52.27493 | 4.70075 | 549 ft | 123 kts | 60° |
| 2026-05-07 18:46 | 52.27792 | 4.70847 | 445 ft | 124 kts | 59° |
| 2026-05-07 18:47 | 52.28362 | 4.72322 | 242 ft | 126 kts | 59° |
| 2026-05-07 18:47 | 52.28653 | 4.73080 | 141 ft | 125 kts | 62° |
| 2026-05-07 18:48 | 52.29190 | 4.74505 | -1 ft | 101 kts | 56° |
| 2026-05-07 18:48 | 52.29419 | 4.75047 | 0 ft | 79 kts | 60° |
| 2026-05-07 18:48 | 52.29694 | 4.75714 | -4 ft | 23 kts | 39° |
| 2026-05-07 18:49 | 52.29813 | 4.75816 | -4 ft | 15 kts | 30° |
| 2026-05-07 18:49 | 52.29855 | 4.75862 | -4 ft | 11 kts | 35° |
| 2026-05-07 18:49 | 52.29895 | 4.75901 | -3 ft | 11 kts | 28° |
| 2026-05-07 18:49 | 52.29915 | 4.75918 | -3 ft | 4 kts | 28° |
| 2026-05-07 18:50 | 52.29929 | 4.75931 | -2 ft | 3 kts | 28° |
| 2026-05-07 18:50 | 52.29942 | 4.75942 | -2 ft | 6 kts | 28° |
| 2026-05-07 18:50 | 52.29962 | 4.75960 | -2 ft | 8 kts | 31° |
| 2026-05-07 18:50 | 52.29986 | 4.75988 | -1 ft | 10 kts | 41° |
| 2026-05-07 18:51 | 52.30010 | 4.76035 | -1 ft | 11 kts | 57° |
| 2026-05-07 18:51 | 52.30034 | 4.76099 | 0 ft | 12 kts | 58° |
| 2026-05-07 18:51 | 52.30062 | 4.76173 | -1 ft | 14 kts | 58° |
| 2026-05-07 18:51 | 52.30098 | 4.76266 | -2 ft | 6 kts | 50° |
| 2026-05-07 18:52 | 52.30117 | 4.76285 | -2 ft | 6 kts | 15° |
| 2026-05-07 18:52 | 52.30143 | 4.76282 | -1 ft | 7 kts | 343° |
| 2026-05-07 18:52 | 52.30174 | 4.76271 | -1 ft | 7 kts | 352° |
| 2026-05-07 18:52 | 52.30209 | 4.76256 | 0 ft | 8 kts | 336° |
| 2026-05-07 18:53 | 52.30253 | 4.76214 | 0 ft | 9 kts | 328° |
| 2026-05-07 18:53 | 52.30293 | 4.76173 | 1 ft | 7 kts | 328° |
| 2026-05-07 18:53 | 52.30318 | 4.76173 | 1 ft | 5 kts | 40° |
| 2026-05-07 18:53 | 52.30334 | 4.76206 | 1 ft | 2 kts | 56° |
| 2026-05-07 18:54 | 52.30335 | 4.76209 | 1 ft | 0 kts | 56° |